SWA4395 KOMA-KPHX
Flight info
| Callsign | SWA4395 |
|---|---|
| Flight time | 2h 12m |
| Altitude | 36000 |
| Route | LNK KD60A GUP EAGUL6 |
| Aircraft | B738/M-SDE2E3FGHIRWXY/LB1 |
Departure
| Time | 2026-05-08 23:27 |
|---|---|
| Airport | Eppley Airfield (KOMA) |
Arrival
| Time | 2026-05-09 01:39 |
|---|---|
| Airport | Phoenix Sky Harbor International Airport (KPHX) |
| Time | Latitude | Longitude | Altitude | Speed | Heading |
|---|---|---|---|---|---|
| 2026-05-08 23:12 | 41.30135 | -95.89784 | 984 ft | 0 kts | 249° |
| 2026-05-08 23:14 | 41.30136 | -95.89782 | 984 ft | 3 kts | 249° |
| 2026-05-08 23:14 | 41.30142 | -95.89759 | 993 ft | 3 kts | 249° |
| 2026-05-08 23:14 | 41.30149 | -95.89737 | 991 ft | 3 kts | 237° |
| 2026-05-08 23:15 | 41.30152 | -95.89715 | 988 ft | 3 kts | 300° |
| 2026-05-08 23:15 | 41.30144 | -95.89703 | 986 ft | 0 kts | 340° |
| 2026-05-08 23:16 | 41.30145 | -95.89703 | 986 ft | 0 kts | 340° |
| 2026-05-08 23:16 | 41.30150 | -95.89706 | 991 ft | 2 kts | 339° |
| 2026-05-08 23:16 | 41.30162 | -95.89717 | 990 ft | 3 kts | 320° |
| 2026-05-08 23:16 | 41.30180 | -95.89738 | 987 ft | 4 kts | 317° |
| 2026-05-08 23:17 | 41.30206 | -95.89768 | 988 ft | 6 kts | 320° |
| 2026-05-08 23:17 | 41.30240 | -95.89808 | 984 ft | 7 kts | 310° |
| 2026-05-08 23:17 | 41.30281 | -95.89852 | 987 ft | 8 kts | 341° |
| 2026-05-08 23:17 | 41.30334 | -95.89820 | 986 ft | 9 kts | 10° |
| 2026-05-08 23:18 | 41.30392 | -95.89849 | 989 ft | 9 kts | 326° |
| 2026-05-08 23:18 | 41.30449 | -95.89902 | 984 ft | 11 kts | 325° |
| 2026-05-08 23:18 | 41.30495 | -95.89931 | 988 ft | 11 kts | 354° |
| 2026-05-08 23:18 | 41.30555 | -95.89870 | 984 ft | 12 kts | 77° |
| 2026-05-08 23:19 | 41.30512 | -95.89781 | 984 ft | 12 kts | 146° |
| 2026-05-08 23:19 | 41.30438 | -95.89712 | 984 ft | 14 kts | 144° |
| 2026-05-08 23:19 | 41.30356 | -95.89633 | 990 ft | 15 kts | 144° |
| 2026-05-08 23:19 | 41.30257 | -95.89604 | 991 ft | 15 kts | 181° |
| 2026-05-08 23:20 | 41.30150 | -95.89603 | 985 ft | 16 kts | 167° |
| 2026-05-08 23:20 | 41.30054 | -95.89525 | 982 ft | 17 kts | 144° |
| 2026-05-08 23:20 | 41.29955 | -95.89430 | 984 ft | 18 kts | 145° |
| 2026-05-08 23:20 | 41.29854 | -95.89334 | 990 ft | 18 kts | 144° |
| 2026-05-08 23:21 | 41.29755 | -95.89240 | 987 ft | 17 kts | 144° |
| 2026-05-08 23:21 | 41.29661 | -95.89150 | 992 ft | 16 kts | 144° |
| 2026-05-08 23:21 | 41.29570 | -95.89064 | 985 ft | 16 kts | 145° |
| 2026-05-08 23:21 | 41.29481 | -95.88982 | 987 ft | 15 kts | 144° |
| 2026-05-08 23:22 | 41.29393 | -95.88899 | 986 ft | 16 kts | 144° |
| 2026-05-08 23:22 | 41.29301 | -95.88812 | 989 ft | 16 kts | 144° |
| 2026-05-08 23:22 | 41.29230 | -95.88721 | 991 ft | 14 kts | 102° |
| 2026-05-08 23:22 | 41.29294 | -95.88641 | 985 ft | 15 kts | 357° |
| 2026-05-08 23:23 | 41.29341 | -95.88667 | 983 ft | 0 kts | 324° |
| 2026-05-08 23:26 | 41.29345 | -95.88671 | 983 ft | 7 kts | 324° |
| 2026-05-08 23:26 | 41.29578 | -95.88893 | 988 ft | 76 kts | 324° |
| 2026-05-08 23:26 | 41.30179 | -95.89464 | 989 ft | 137 kts | 325° |
| 2026-05-08 23:26 | 41.31091 | -95.90321 | 1100 ft | 176 kts | 325° |
| 2026-05-08 23:27 | 41.32088 | -95.91255 | 1889 ft | 173 kts | 324° |
| 2026-05-08 23:27 | 41.33019 | -95.92181 | 2768 ft | 165 kts | 320° |
| 2026-05-08 23:27 | 41.33957 | -95.93222 | 3092 ft | 189 kts | 309° |
| 2026-05-08 23:27 | 41.34574 | -95.94857 | 3339 ft | 209 kts | 283° |
| 2026-05-08 23:28 | 41.34385 | -95.96779 | 3761 ft | 220 kts | 243° |
| 2026-05-08 23:28 | 41.33510 | -95.98489 | 4351 ft | 226 kts | 237° |
| 2026-05-08 23:28 | 41.32589 | -96.00172 | 5137 ft | 224 kts | 237° |
| 2026-05-08 23:28 | 41.31665 | -96.01856 | 5834 ft | 227 kts | 237° |
| 2026-05-08 23:29 | 41.30735 | -96.03555 | 6516 ft | 228 kts | 237° |
| 2026-05-08 23:29 | 41.29800 | -96.05271 | 7168 ft | 230 kts | 238° |
| 2026-05-08 23:29 | 41.28861 | -96.07002 | 7835 ft | 232 kts | 238° |
| 2026-05-08 23:29 | 41.27915 | -96.08748 | 8504 ft | 234 kts | 239° |
| 2026-05-08 23:30 | 41.26961 | -96.10515 | 9128 ft | 237 kts | 238° |
| 2026-05-08 23:30 | 41.25993 | -96.12309 | 9769 ft | 240 kts | 238° |
| 2026-05-08 23:30 | 41.25017 | -96.14118 | 10380 ft | 242 kts | 239° |
| 2026-05-08 23:30 | 41.24032 | -96.15944 | 11004 ft | 244 kts | 239° |
| 2026-05-08 23:31 | 41.23039 | -96.17786 | 11655 ft | 246 kts | 239° |
| 2026-05-08 23:31 | 41.22035 | -96.19650 | 12230 ft | 252 kts | 239° |
| 2026-05-08 23:31 | 41.20975 | -96.21625 | 12456 ft | 274 kts | 239° |
| 2026-05-08 23:31 | 41.19828 | -96.23765 | 12646 ft | 296 kts | 239° |
| 2026-05-08 23:32 | 41.18588 | -96.26074 | 12828 ft | 318 kts | 239° |
| 2026-05-08 23:32 | 41.17259 | -96.28540 | 12988 ft | 339 kts | 239° |
| 2026-05-08 23:32 | 41.15845 | -96.31160 | 13165 ft | 359 kts | 238° |
| 2026-05-08 23:32 | 41.14365 | -96.33891 | 13616 ft | 368 kts | 238° |
| 2026-05-08 23:33 | 41.12860 | -96.36662 | 14236 ft | 372 kts | 238° |
| 2026-05-08 23:33 | 41.11344 | -96.39449 | 14915 ft | 374 kts | 239° |
| 2026-05-08 23:33 | 41.09819 | -96.42254 | 15578 ft | 376 kts | 239° |
| 2026-05-08 23:33 | 41.08282 | -96.45083 | 16210 ft | 380 kts | 239° |
| 2026-05-08 23:34 | 41.06729 | -96.47941 | 16802 ft | 385 kts | 239° |
| 2026-05-08 23:34 | 41.05153 | -96.50841 | 17336 ft | 391 kts | 239° |
| 2026-05-08 23:34 | 41.03578 | -96.53736 | 17944 ft | 394 kts | 239° |
| 2026-05-08 23:34 | 41.01947 | -96.56730 | 18519 ft | 397 kts | 239° |
| 2026-05-08 23:35 | 41.00326 | -96.59703 | 19101 ft | 399 kts | 239° |
| 2026-05-08 23:35 | 40.98697 | -96.62687 | 19650 ft | 402 kts | 239° |
| 2026-05-08 23:35 | 40.97075 | -96.65657 | 20189 ft | 404 kts | 239° |
| 2026-05-08 23:35 | 40.95423 | -96.68679 | 20729 ft | 407 kts | 239° |
| 2026-05-08 23:36 | 40.93760 | -96.71719 | 21248 ft | 409 kts | 240° |
| 2026-05-08 23:36 | 40.92260 | -96.74904 | 21722 ft | 407 kts | 248° |
| 2026-05-08 23:36 | 40.91195 | -96.78343 | 22222 ft | 404 kts | 256° |
| 2026-05-08 23:36 | 40.90275 | -96.81859 | 22729 ft | 406 kts | 256° |
| 2026-05-08 23:37 | 40.89355 | -96.85402 | 23172 ft | 409 kts | 256° |
| 2026-05-08 23:37 | 40.88423 | -96.88978 | 23502 ft | 415 kts | 256° |
| 2026-05-08 23:37 | 40.87472 | -96.92599 | 23846 ft | 418 kts | 256° |
| 2026-05-08 23:37 | 40.86508 | -96.96236 | 24235 ft | 421 kts | 257° |
| 2026-05-08 23:38 | 40.85533 | -96.99891 | 24605 ft | 423 kts | 257° |
| 2026-05-08 23:38 | 40.84547 | -97.03568 | 24948 ft | 426 kts | 257° |
| 2026-05-08 23:38 | 40.83551 | -97.07275 | 25276 ft | 430 kts | 257° |
| 2026-05-08 23:38 | 40.82545 | -97.11005 | 25601 ft | 433 kts | 257° |
| 2026-05-08 23:39 | 40.81532 | -97.14758 | 25935 ft | 436 kts | 258° |
| 2026-05-08 23:39 | 40.80511 | -97.18534 | 26257 ft | 438 kts | 258° |
| 2026-05-08 23:39 | 40.79481 | -97.22336 | 26578 ft | 441 kts | 258° |
| 2026-05-08 23:39 | 40.78445 | -97.26157 | 26888 ft | 444 kts | 258° |
| 2026-05-08 23:40 | 40.77401 | -97.30000 | 27198 ft | 446 kts | 258° |
| 2026-05-08 23:40 | 40.76350 | -97.33863 | 27504 ft | 449 kts | 259° |
| 2026-05-08 23:40 | 40.75292 | -97.37748 | 27801 ft | 451 kts | 259° |
| 2026-05-08 23:40 | 40.74225 | -97.41656 | 28092 ft | 454 kts | 259° |
| 2026-05-08 23:41 | 40.73152 | -97.45583 | 28368 ft | 457 kts | 259° |
| 2026-05-08 23:41 | 40.72072 | -97.49530 | 28645 ft | 459 kts | 259° |
| 2026-05-08 23:41 | 40.70985 | -97.53492 | 29007 ft | 459 kts | 259° |
| 2026-05-08 23:41 | 40.69897 | -97.57444 | 29454 ft | 458 kts | 260° |
| 2026-05-08 23:42 | 40.68811 | -97.61379 | 29841 ft | 457 kts | 260° |
| 2026-05-08 23:42 | 40.67727 | -97.65306 | 30219 ft | 455 kts | 260° |
| 2026-05-08 23:42 | 40.66647 | -97.69216 | 30587 ft | 454 kts | 260° |
| 2026-05-08 23:42 | 40.65567 | -97.73120 | 30949 ft | 453 kts | 260° |
| 2026-05-08 23:43 | 40.64491 | -97.77010 | 31274 ft | 452 kts | 260° |
| 2026-05-08 23:43 | 40.63414 | -97.80893 | 31628 ft | 451 kts | 261° |
| 2026-05-08 23:43 | 40.62340 | -97.84761 | 32002 ft | 449 kts | 261° |
| 2026-05-08 23:43 | 40.61283 | -97.88564 | 32329 ft | 448 kts | 261° |
| 2026-05-08 23:44 | 40.60213 | -97.92410 | 32653 ft | 447 kts | 261° |
| 2026-05-08 23:44 | 40.59143 | -97.96248 | 32988 ft | 446 kts | 261° |
| 2026-05-08 23:44 | 40.58074 | -98.00076 | 33271 ft | 445 kts | 260° |
| 2026-05-08 23:44 | 40.57009 | -98.03883 | 33627 ft | 443 kts | 260° |
| 2026-05-08 23:45 | 40.55944 | -98.07685 | 33923 ft | 443 kts | 260° |
| 2026-05-08 23:45 | 40.54880 | -98.11480 | 34176 ft | 442 kts | 260° |
| 2026-05-08 23:45 | 40.53815 | -98.15271 | 34446 ft | 441 kts | 260° |
| 2026-05-08 23:45 | 40.52752 | -98.19048 | 34721 ft | 440 kts | 259° |
| 2026-05-08 23:46 | 40.51689 | -98.22820 | 34984 ft | 439 kts | 259° |
| 2026-05-08 23:46 | 40.50629 | -98.26577 | 35239 ft | 438 kts | 259° |
| 2026-05-08 23:46 | 40.49568 | -98.30333 | 35494 ft | 438 kts | 259° |
| 2026-05-08 23:46 | 40.48510 | -98.34073 | 35731 ft | 437 kts | 259° |
| 2026-05-08 23:47 | 40.47449 | -98.37816 | 35855 ft | 437 kts | 259° |
| 2026-05-08 23:47 | 40.46387 | -98.41565 | 35844 ft | 439 kts | 258° |
| 2026-05-08 23:47 | 40.44255 | -98.49061 | 35821 ft | 437 kts | 258° |
| 2026-05-08 23:48 | 40.42130 | -98.56504 | 35825 ft | 435 kts | 258° |
| 2026-05-08 23:48 | 40.40009 | -98.63915 | 35825 ft | 433 kts | 258° |
| 2026-05-08 23:49 | 40.37892 | -98.71295 | 35835 ft | 432 kts | 258° |
| 2026-05-08 23:49 | 40.35776 | -98.78652 | 35823 ft | 431 kts | 258° |
| 2026-05-08 23:50 | 40.33655 | -98.86009 | 35840 ft | 432 kts | 258° |
| 2026-05-08 23:50 | 40.31525 | -98.93376 | 35844 ft | 433 kts | 258° |
| 2026-05-08 23:51 | 40.29381 | -99.00768 | 35852 ft | 435 kts | 258° |
| 2026-05-08 23:51 | 40.27236 | -99.08141 | 35857 ft | 437 kts | 258° |
| 2026-05-08 23:52 | 40.25064 | -99.15579 | 35852 ft | 437 kts | 258° |
| 2026-05-08 23:52 | 40.22885 | -99.23025 | 35862 ft | 438 kts | 258° |
| 2026-05-08 23:53 | 40.20696 | -99.30483 | 35858 ft | 439 kts | 258° |
| 2026-05-08 23:53 | 40.18501 | -99.37941 | 35843 ft | 440 kts | 258° |
| 2026-05-08 23:54 | 40.16299 | -99.45402 | 35844 ft | 440 kts | 258° |
| 2026-05-08 23:55 | 40.12996 | -99.56549 | 35839 ft | 438 kts | 257° |
| 2026-05-08 23:55 | 40.10796 | -99.63953 | 35848 ft | 437 kts | 257° |
| 2026-05-08 23:56 | 40.08596 | -99.71336 | 35834 ft | 436 kts | 257° |
| 2026-05-08 23:56 | 40.06394 | -99.78706 | 35862 ft | 435 kts | 257° |
| 2026-05-08 23:57 | 40.04194 | -99.86051 | 35859 ft | 434 kts | 257° |
| 2026-05-08 23:57 | 40.02012 | -99.93319 | 35871 ft | 433 kts | 257° |
| 2026-05-08 23:58 | 39.99766 | -100.00618 | 35875 ft | 437 kts | 253° |
| 2026-05-08 23:58 | 39.96781 | -100.07609 | 35876 ft | 443 kts | 248° |
| 2026-05-08 23:59 | 39.93624 | -100.14518 | 35876 ft | 444 kts | 248° |
| 2026-05-08 23:59 | 39.90482 | -100.21438 | 35829 ft | 443 kts | 248° |
| 2026-05-09 00:00 | 39.87372 | -100.28362 | 35825 ft | 443 kts | 248° |
| 2026-05-09 00:00 | 39.84273 | -100.35285 | 35901 ft | 443 kts | 248° |
| 2026-05-09 00:01 | 39.81165 | -100.42222 | 35921 ft | 444 kts | 248° |
| 2026-05-09 00:01 | 39.78051 | -100.49154 | 35917 ft | 445 kts | 248° |
| 2026-05-09 00:02 | 39.74931 | -100.56081 | 35907 ft | 445 kts | 248° |
| 2026-05-09 00:02 | 39.71801 | -100.63014 | 35901 ft | 444 kts | 248° |
| 2026-05-09 00:03 | 39.68670 | -100.69936 | 35895 ft | 445 kts | 248° |
| 2026-05-09 00:03 | 39.65530 | -100.76861 | 35888 ft | 445 kts | 248° |
| 2026-05-09 00:04 | 39.62405 | -100.83738 | 35904 ft | 445 kts | 248° |
| 2026-05-09 00:04 | 39.59258 | -100.90648 | 35924 ft | 445 kts | 248° |
| 2026-05-09 00:05 | 39.56104 | -100.97557 | 35934 ft | 445 kts | 248° |
| 2026-05-09 00:05 | 39.52947 | -101.04458 | 35951 ft | 445 kts | 248° |
| 2026-05-09 00:06 | 39.49787 | -101.11351 | 35954 ft | 445 kts | 248° |
| 2026-05-09 00:06 | 39.46624 | -101.18233 | 35942 ft | 445 kts | 248° |
| 2026-05-09 00:07 | 39.43456 | -101.25114 | 35880 ft | 445 kts | 248° |
| 2026-05-09 00:07 | 39.40284 | -101.31988 | 35855 ft | 445 kts | 248° |
| 2026-05-09 00:08 | 39.37106 | -101.38860 | 35909 ft | 445 kts | 247° |
| 2026-05-09 00:08 | 39.34440 | -101.44613 | 35928 ft | 446 kts | 247° |
| 2026-05-09 00:09 | 39.31247 | -101.51489 | 35945 ft | 446 kts | 247° |
| 2026-05-09 00:09 | 39.28069 | -101.58320 | 35951 ft | 447 kts | 247° |
| 2026-05-09 00:10 | 39.24860 | -101.65201 | 35951 ft | 448 kts | 247° |
| 2026-05-09 00:10 | 39.21644 | -101.72081 | 35941 ft | 448 kts | 247° |
| 2026-05-09 00:11 | 39.18423 | -101.78958 | 35929 ft | 448 kts | 247° |
| 2026-05-09 00:11 | 39.15194 | -101.85838 | 35920 ft | 449 kts | 247° |
| 2026-05-09 00:12 | 39.11951 | -101.92732 | 35904 ft | 450 kts | 247° |
| 2026-05-09 00:12 | 39.08698 | -101.99632 | 35892 ft | 451 kts | 246° |
| 2026-05-09 00:13 | 39.05436 | -102.06535 | 35866 ft | 452 kts | 246° |
| 2026-05-09 00:13 | 39.02167 | -102.13437 | 35880 ft | 452 kts | 246° |
| 2026-05-09 00:14 | 38.98893 | -102.20337 | 35935 ft | 452 kts | 246° |
| 2026-05-09 00:14 | 38.95611 | -102.27238 | 35926 ft | 453 kts | 246° |
| 2026-05-09 00:15 | 38.92323 | -102.34136 | 35916 ft | 452 kts | 246° |
| 2026-05-09 00:15 | 38.89038 | -102.41013 | 35861 ft | 452 kts | 245° |
| 2026-05-09 00:16 | 38.85755 | -102.47871 | 35894 ft | 451 kts | 245° |
| 2026-05-09 00:16 | 38.82473 | -102.54713 | 35909 ft | 450 kts | 245° |
| 2026-05-09 00:17 | 38.79190 | -102.61544 | 35901 ft | 450 kts | 245° |
| 2026-05-09 00:17 | 38.75904 | -102.68365 | 35899 ft | 450 kts | 245° |
| 2026-05-09 00:18 | 38.72614 | -102.75181 | 35896 ft | 450 kts | 245° |
| 2026-05-09 00:18 | 38.69323 | -102.81982 | 35890 ft | 449 kts | 245° |
| 2026-05-09 00:19 | 38.66052 | -102.88729 | 35889 ft | 449 kts | 245° |
| 2026-05-09 00:19 | 38.62751 | -102.95525 | 35879 ft | 450 kts | 245° |
| 2026-05-09 00:20 | 38.59439 | -103.02328 | 35883 ft | 451 kts | 245° |
| 2026-05-09 00:20 | 38.56123 | -103.09125 | 35878 ft | 451 kts | 245° |
| 2026-05-09 00:21 | 38.52795 | -103.15934 | 35859 ft | 452 kts | 244° |
| 2026-05-09 00:21 | 38.49460 | -103.22739 | 35874 ft | 452 kts | 244° |
| 2026-05-09 00:22 | 38.46117 | -103.29550 | 35879 ft | 453 kts | 244° |
| 2026-05-09 00:22 | 38.42763 | -103.36366 | 35867 ft | 454 kts | 244° |
| 2026-05-09 00:23 | 38.39398 | -103.43190 | 35874 ft | 455 kts | 244° |
| 2026-05-09 00:23 | 38.36028 | -103.50011 | 35855 ft | 455 kts | 244° |
| 2026-05-09 00:24 | 38.32656 | -103.56821 | 35884 ft | 454 kts | 244° |
| 2026-05-09 00:24 | 38.29280 | -103.63623 | 35904 ft | 454 kts | 244° |
| 2026-05-09 00:25 | 38.25904 | -103.70414 | 35903 ft | 454 kts | 244° |
| 2026-05-09 00:25 | 38.22523 | -103.77199 | 35900 ft | 454 kts | 243° |
| 2026-05-09 00:26 | 38.19139 | -103.83978 | 35885 ft | 454 kts | 243° |
| 2026-05-09 00:26 | 38.15751 | -103.90749 | 35869 ft | 454 kts | 243° |
| 2026-05-09 00:27 | 38.12382 | -103.97468 | 35857 ft | 454 kts | 243° |
| 2026-05-09 00:27 | 38.08984 | -104.04233 | 35855 ft | 455 kts | 243° |
| 2026-05-09 00:28 | 38.05576 | -104.11002 | 35857 ft | 455 kts | 243° |
| 2026-05-09 00:28 | 38.02161 | -104.17773 | 35843 ft | 456 kts | 243° |
| 2026-05-09 00:29 | 37.98741 | -104.24538 | 35841 ft | 456 kts | 242° |
| 2026-05-09 00:29 | 37.95316 | -104.31297 | 35857 ft | 456 kts | 242° |
| 2026-05-09 00:30 | 37.91886 | -104.38055 | 35867 ft | 456 kts | 242° |
| 2026-05-09 00:30 | 37.88447 | -104.44817 | 35866 ft | 457 kts | 242° |
| 2026-05-09 00:31 | 37.85000 | -104.51578 | 35869 ft | 457 kts | 242° |
| 2026-05-09 00:31 | 37.81551 | -104.58332 | 35869 ft | 457 kts | 242° |
| 2026-05-09 00:32 | 37.78100 | -104.65073 | 35884 ft | 457 kts | 242° |
| 2026-05-09 00:32 | 37.74647 | -104.71806 | 35889 ft | 456 kts | 242° |
| 2026-05-09 00:33 | 37.71191 | -104.78531 | 35874 ft | 456 kts | 242° |
| 2026-05-09 00:33 | 37.67732 | -104.85248 | 35888 ft | 456 kts | 242° |
| 2026-05-09 00:34 | 37.64274 | -104.91950 | 35893 ft | 456 kts | 242° |
| 2026-05-09 00:34 | 37.60805 | -104.98659 | 35895 ft | 456 kts | 242° |
| 2026-05-09 00:35 | 37.57331 | -105.05365 | 35908 ft | 457 kts | 241° |
| 2026-05-09 00:35 | 37.53868 | -105.12036 | 35914 ft | 459 kts | 241° |
| 2026-05-09 00:36 | 37.50369 | -105.18763 | 35908 ft | 460 kts | 241° |
| 2026-05-09 00:36 | 37.46855 | -105.25504 | 35927 ft | 461 kts | 241° |
| 2026-05-09 00:37 | 37.43330 | -105.32253 | 35908 ft | 462 kts | 241° |
| 2026-05-09 00:37 | 37.39794 | -105.39010 | 35906 ft | 463 kts | 241° |
| 2026-05-09 00:38 | 37.36253 | -105.45760 | 35921 ft | 462 kts | 241° |
| 2026-05-09 00:38 | 37.32709 | -105.52504 | 35942 ft | 462 kts | 241° |
| 2026-05-09 00:39 | 37.29165 | -105.59233 | 35966 ft | 461 kts | 241° |
| 2026-05-09 00:39 | 37.25624 | -105.65944 | 35867 ft | 461 kts | 241° |
| 2026-05-09 00:40 | 37.22085 | -105.72639 | 35874 ft | 459 kts | 241° |
| 2026-05-09 00:40 | 37.18553 | -105.79306 | 35864 ft | 459 kts | 241° |
| 2026-05-09 00:41 | 37.13261 | -105.89272 | 35864 ft | 457 kts | 241° |
| 2026-05-09 00:41 | 37.09731 | -105.95902 | 35871 ft | 457 kts | 241° |
| 2026-05-09 00:42 | 37.06205 | -106.02511 | 35872 ft | 456 kts | 241° |
| 2026-05-09 00:42 | 37.02679 | -106.09109 | 35900 ft | 456 kts | 240° |
| 2026-05-09 00:43 | 36.99170 | -106.15661 | 35905 ft | 456 kts | 240° |
| 2026-05-09 00:43 | 36.95632 | -106.22256 | 35922 ft | 457 kts | 240° |
| 2026-05-09 00:44 | 36.92083 | -106.28858 | 35913 ft | 458 kts | 240° |
| 2026-05-09 00:44 | 36.88520 | -106.35474 | 35910 ft | 459 kts | 240° |
| 2026-05-09 00:45 | 36.84949 | -106.42089 | 35924 ft | 459 kts | 240° |
| 2026-05-09 00:45 | 36.81370 | -106.48705 | 35920 ft | 460 kts | 240° |
| 2026-05-09 00:46 | 36.77789 | -106.55316 | 35901 ft | 460 kts | 240° |
| 2026-05-09 00:46 | 36.74206 | -106.61915 | 35908 ft | 459 kts | 240° |
| 2026-05-09 00:47 | 36.70623 | -106.68500 | 35881 ft | 459 kts | 240° |
| 2026-05-09 00:47 | 36.67037 | -106.75079 | 35881 ft | 458 kts | 240° |
| 2026-05-09 00:48 | 36.63454 | -106.81641 | 35879 ft | 458 kts | 240° |
| 2026-05-09 00:48 | 36.59863 | -106.88205 | 35873 ft | 459 kts | 240° |
| 2026-05-09 00:49 | 36.56268 | -106.94761 | 35879 ft | 459 kts | 240° |
| 2026-05-09 00:49 | 36.52666 | -107.01321 | 35870 ft | 459 kts | 240° |
| 2026-05-09 00:50 | 36.49060 | -107.07873 | 35862 ft | 459 kts | 239° |
| 2026-05-09 00:50 | 36.45450 | -107.14419 | 35875 ft | 459 kts | 239° |
| 2026-05-09 00:51 | 36.41836 | -107.20960 | 35882 ft | 459 kts | 239° |
| 2026-05-09 00:51 | 36.38217 | -107.27499 | 35882 ft | 459 kts | 239° |
| 2026-05-09 00:52 | 36.34595 | -107.34030 | 35880 ft | 459 kts | 239° |
| 2026-05-09 00:52 | 36.30970 | -107.40554 | 35876 ft | 459 kts | 239° |
| 2026-05-09 00:53 | 36.27343 | -107.47070 | 35901 ft | 459 kts | 239° |
| 2026-05-09 00:53 | 36.23712 | -107.53581 | 35895 ft | 459 kts | 239° |
| 2026-05-09 00:54 | 36.20078 | -107.60083 | 35906 ft | 459 kts | 239° |
| 2026-05-09 00:54 | 36.16438 | -107.66586 | 35903 ft | 459 kts | 239° |
| 2026-05-09 00:55 | 36.12817 | -107.73040 | 35896 ft | 460 kts | 239° |
| 2026-05-09 00:55 | 36.09170 | -107.79531 | 35884 ft | 460 kts | 239° |
| 2026-05-09 00:56 | 36.06111 | -107.84963 | 35876 ft | 459 kts | 239° |
| 2026-05-09 00:56 | 36.02460 | -107.91438 | 35854 ft | 459 kts | 239° |
| 2026-05-09 00:57 | 35.98808 | -107.97901 | 35862 ft | 459 kts | 239° |
| 2026-05-09 00:57 | 35.95180 | -108.04312 | 35843 ft | 459 kts | 239° |
| 2026-05-09 00:58 | 35.91497 | -108.10805 | 35846 ft | 459 kts | 239° |
| 2026-05-09 00:58 | 35.87835 | -108.17251 | 35827 ft | 459 kts | 239° |
| 2026-05-09 00:59 | 35.84166 | -108.23698 | 35824 ft | 459 kts | 239° |
| 2026-05-09 00:59 | 35.80516 | -108.30097 | 35812 ft | 460 kts | 239° |
| 2026-05-09 01:00 | 35.76839 | -108.36533 | 35822 ft | 459 kts | 239° |
| 2026-05-09 01:00 | 35.73157 | -108.42965 | 35824 ft | 460 kts | 239° |
| 2026-05-09 01:01 | 35.69473 | -108.49391 | 35813 ft | 460 kts | 239° |
| 2026-05-09 01:01 | 35.65782 | -108.55815 | 35805 ft | 460 kts | 239° |
| 2026-05-09 01:02 | 35.62091 | -108.62229 | 35796 ft | 460 kts | 239° |
| 2026-05-09 01:02 | 35.58398 | -108.68633 | 35791 ft | 459 kts | 239° |
| 2026-05-09 01:03 | 35.54708 | -108.75022 | 36103 ft | 458 kts | 238° |
| 2026-05-09 01:03 | 35.51016 | -108.81405 | 36089 ft | 458 kts | 238° |
| 2026-05-09 01:04 | 35.47315 | -108.87756 | 36096 ft | 458 kts | 236° |
| 2026-05-09 01:04 | 35.43059 | -108.93616 | 36047 ft | 462 kts | 230° |
| 2026-05-09 01:05 | 35.38536 | -108.99222 | 35979 ft | 462 kts | 229° |
| 2026-05-09 01:06 | 35.31826 | -109.07703 | 35886 ft | 462 kts | 230° |
| 2026-05-09 01:06 | 35.27427 | -109.13370 | 35832 ft | 462 kts | 230° |
| 2026-05-09 01:07 | 35.23003 | -109.19074 | 35849 ft | 462 kts | 230° |
| 2026-05-09 01:07 | 35.18570 | -109.24776 | 35845 ft | 463 kts | 230° |
| 2026-05-09 01:08 | 35.14134 | -109.30469 | 35898 ft | 462 kts | 230° |
| 2026-05-09 01:08 | 35.09696 | -109.36154 | 35861 ft | 462 kts | 230° |
| 2026-05-09 01:09 | 35.05255 | -109.41833 | 35851 ft | 462 kts | 230° |
| 2026-05-09 01:09 | 35.00815 | -109.47501 | 35842 ft | 462 kts | 230° |
| 2026-05-09 01:10 | 34.96374 | -109.53162 | 35852 ft | 462 kts | 230° |
| 2026-05-09 01:10 | 34.91933 | -109.58813 | 35846 ft | 461 kts | 230° |
| 2026-05-09 01:11 | 34.87496 | -109.64453 | 35850 ft | 461 kts | 230° |
| 2026-05-09 01:11 | 34.83059 | -109.70081 | 35847 ft | 460 kts | 230° |
| 2026-05-09 01:12 | 34.78637 | -109.75711 | 35856 ft | 460 kts | 230° |
| 2026-05-09 01:12 | 34.74222 | -109.81335 | 35839 ft | 459 kts | 230° |
| 2026-05-09 01:13 | 34.70079 | -109.87180 | 35823 ft | 451 kts | 246° |
| 2026-05-09 01:13 | 34.67578 | -109.94109 | 35858 ft | 448 kts | 250° |
| 2026-05-09 01:13 | 34.66344 | -109.97534 | 35712 ft | 451 kts | 249° |
| 2026-05-09 01:14 | 34.65045 | -110.01084 | 35156 ft | 455 kts | 249° |
| 2026-05-09 01:14 | 34.63764 | -110.04538 | 34546 ft | 455 kts | 249° |
| 2026-05-09 01:14 | 34.62441 | -110.08081 | 33928 ft | 455 kts | 249° |
| 2026-05-09 01:14 | 34.61127 | -110.11590 | 33191 ft | 457 kts | 249° |
| 2026-05-09 01:15 | 34.59828 | -110.15054 | 32477 ft | 458 kts | 249° |
| 2026-05-09 01:15 | 34.58508 | -110.18573 | 31798 ft | 458 kts | 248° |
| 2026-05-09 01:15 | 34.57195 | -110.22070 | 31344 ft | 453 kts | 248° |
| 2026-05-09 01:15 | 34.55891 | -110.25538 | 30853 ft | 450 kts | 248° |
| 2026-05-09 01:16 | 34.54598 | -110.28977 | 30371 ft | 446 kts | 248° |
| 2026-05-09 01:16 | 34.53317 | -110.32384 | 29889 ft | 443 kts | 248° |
| 2026-05-09 01:16 | 34.52041 | -110.35774 | 29387 ft | 439 kts | 248° |
| 2026-05-09 01:17 | 34.49569 | -110.42324 | 29033 ft | 416 kts | 248° |
| 2026-05-09 01:17 | 34.48370 | -110.45494 | 28585 ft | 413 kts | 248° |
| 2026-05-09 01:17 | 34.47180 | -110.48637 | 28187 ft | 408 kts | 248° |
| 2026-05-09 01:17 | 34.46000 | -110.51750 | 27762 ft | 404 kts | 248° |
| 2026-05-09 01:18 | 34.44830 | -110.54836 | 27337 ft | 401 kts | 248° |
| 2026-05-09 01:18 | 34.43670 | -110.57894 | 26913 ft | 398 kts | 248° |
| 2026-05-09 01:18 | 34.42517 | -110.60931 | 26509 ft | 396 kts | 248° |
| 2026-05-09 01:18 | 34.41371 | -110.63946 | 26093 ft | 393 kts | 248° |
| 2026-05-09 01:19 | 34.40232 | -110.66942 | 25679 ft | 391 kts | 248° |
| 2026-05-09 01:19 | 34.39097 | -110.69924 | 25264 ft | 388 kts | 248° |
| 2026-05-09 01:19 | 34.37969 | -110.72885 | 24864 ft | 387 kts | 248° |
| 2026-05-09 01:19 | 34.36843 | -110.75837 | 24454 ft | 385 kts | 249° |
| 2026-05-09 01:20 | 34.35710 | -110.78767 | 24038 ft | 385 kts | 245° |
| 2026-05-09 01:20 | 34.34145 | -110.81406 | 23554 ft | 390 kts | 229° |
| 2026-05-09 01:20 | 34.32268 | -110.83777 | 22997 ft | 391 kts | 227° |
| 2026-05-09 01:20 | 34.30386 | -110.86144 | 22480 ft | 390 kts | 228° |
| 2026-05-09 01:21 | 34.28514 | -110.88515 | 21992 ft | 389 kts | 228° |
| 2026-05-09 01:21 | 34.26654 | -110.90891 | 21486 ft | 388 kts | 229° |
| 2026-05-09 01:21 | 34.24808 | -110.93265 | 21019 ft | 388 kts | 229° |
| 2026-05-09 01:21 | 34.22965 | -110.95642 | 20551 ft | 387 kts | 229° |
| 2026-05-09 01:22 | 34.21126 | -110.98017 | 20076 ft | 387 kts | 229° |
| 2026-05-09 01:22 | 34.19292 | -111.00384 | 19668 ft | 385 kts | 229° |
| 2026-05-09 01:22 | 34.17470 | -111.02734 | 19262 ft | 383 kts | 229° |
| 2026-05-09 01:22 | 34.15649 | -111.05081 | 18810 ft | 382 kts | 229° |
| 2026-05-09 01:23 | 34.13830 | -111.07423 | 18364 ft | 383 kts | 229° |
| 2026-05-09 01:23 | 34.12005 | -111.09770 | 17890 ft | 382 kts | 229° |
| 2026-05-09 01:23 | 34.10192 | -111.12097 | 17473 ft | 378 kts | 229° |
| 2026-05-09 01:23 | 34.08411 | -111.14381 | 17056 ft | 369 kts | 229° |
| 2026-05-09 01:24 | 34.06670 | -111.16614 | 16664 ft | 361 kts | 229° |
| 2026-05-09 01:24 | 34.04965 | -111.18800 | 16294 ft | 354 kts | 229° |
| 2026-05-09 01:24 | 34.03291 | -111.20947 | 15933 ft | 350 kts | 229° |
| 2026-05-09 01:24 | 34.01631 | -111.23074 | 15578 ft | 347 kts | 230° |
| 2026-05-09 01:25 | 33.99978 | -111.25193 | 15239 ft | 348 kts | 230° |
| 2026-05-09 01:25 | 33.98311 | -111.27330 | 14869 ft | 351 kts | 229° |
| 2026-05-09 01:25 | 33.96639 | -111.29469 | 14494 ft | 350 kts | 230° |
| 2026-05-09 01:25 | 33.94971 | -111.31603 | 14122 ft | 349 kts | 230° |
| 2026-05-09 01:26 | 33.93311 | -111.33725 | 13731 ft | 348 kts | 230° |
| 2026-05-09 01:26 | 33.91654 | -111.35843 | 13323 ft | 347 kts | 230° |
| 2026-05-09 01:26 | 33.90011 | -111.37951 | 12910 ft | 344 kts | 230° |
| 2026-05-09 01:26 | 33.88386 | -111.40035 | 12545 ft | 339 kts | 230° |
| 2026-05-09 01:27 | 33.86618 | -111.41905 | 12213 ft | 338 kts | 219° |
| 2026-05-09 01:27 | 33.84697 | -111.43491 | 11869 ft | 332 kts | 218° |
| 2026-05-09 01:27 | 33.82832 | -111.45006 | 11517 ft | 325 kts | 218° |
| 2026-05-09 01:27 | 33.80998 | -111.46539 | 11176 ft | 317 kts | 220° |
| 2026-05-09 01:28 | 33.79213 | -111.48060 | 10846 ft | 312 kts | 220° |
| 2026-05-09 01:28 | 33.77453 | -111.49570 | 10542 ft | 310 kts | 220° |
| 2026-05-09 01:28 | 33.75702 | -111.51078 | 10211 ft | 308 kts | 220° |
| 2026-05-09 01:28 | 33.73975 | -111.52548 | 9937 ft | 299 kts | 219° |
| 2026-05-09 01:29 | 33.72317 | -111.53954 | 9632 ft | 292 kts | 220° |
| 2026-05-09 01:29 | 33.70674 | -111.55366 | 9263 ft | 288 kts | 219° |
| 2026-05-09 01:29 | 33.69057 | -111.56758 | 8960 ft | 283 kts | 220° |
| 2026-05-09 01:29 | 33.67475 | -111.58116 | 8654 ft | 276 kts | 220° |
| 2026-05-09 01:30 | 33.65935 | -111.59436 | 8379 ft | 269 kts | 219° |
| 2026-05-09 01:30 | 33.64432 | -111.60722 | 8110 ft | 262 kts | 220° |
| 2026-05-09 01:30 | 33.62969 | -111.61955 | 7976 ft | 249 kts | 220° |
| 2026-05-09 01:30 | 33.61602 | -111.63095 | 7871 ft | 231 kts | 220° |
| 2026-05-09 01:31 | 33.60334 | -111.64151 | 7777 ft | 213 kts | 220° |
| 2026-05-09 01:31 | 33.59169 | -111.65122 | 7655 ft | 196 kts | 221° |
| 2026-05-09 01:31 | 33.58075 | -111.66037 | 7405 ft | 189 kts | 221° |
| 2026-05-09 01:31 | 33.57009 | -111.66930 | 7085 ft | 187 kts | 220° |
| 2026-05-09 01:32 | 33.55948 | -111.67820 | 6756 ft | 184 kts | 220° |
| 2026-05-09 01:32 | 33.54906 | -111.68700 | 6500 ft | 180 kts | 221° |
| 2026-05-09 01:32 | 33.53882 | -111.69567 | 6213 ft | 178 kts | 220° |
| 2026-05-09 01:32 | 33.52878 | -111.70416 | 5976 ft | 178 kts | 220° |
| 2026-05-09 01:33 | 33.51856 | -111.71283 | 5815 ft | 182 kts | 221° |
| 2026-05-09 01:33 | 33.50812 | -111.72166 | 5623 ft | 185 kts | 220° |
| 2026-05-09 01:33 | 33.49766 | -111.73047 | 5417 ft | 182 kts | 221° |
| 2026-05-09 01:33 | 33.48734 | -111.73917 | 5216 ft | 181 kts | 220° |
| 2026-05-09 01:34 | 33.47706 | -111.74784 | 5041 ft | 180 kts | 220° |
| 2026-05-09 01:34 | 33.46740 | -111.75698 | 4830 ft | 173 kts | 237° |
| 2026-05-09 01:34 | 33.46139 | -111.76928 | 4695 ft | 174 kts | 243° |
| 2026-05-09 01:34 | 33.45536 | -111.78191 | 4507 ft | 174 kts | 243° |
| 2026-05-09 01:35 | 33.44937 | -111.79436 | 4295 ft | 171 kts | 244° |
| 2026-05-09 01:35 | 33.44350 | -111.80662 | 4098 ft | 170 kts | 245° |
| 2026-05-09 01:35 | 33.44095 | -111.82026 | 3816 ft | 171 kts | 272° |
| 2026-05-09 01:35 | 33.44102 | -111.83423 | 3588 ft | 164 kts | 269° |
| 2026-05-09 01:36 | 33.44087 | -111.84733 | 3377 ft | 152 kts | 270° |
| 2026-05-09 01:36 | 33.44081 | -111.85982 | 3199 ft | 148 kts | 270° |
| 2026-05-09 01:36 | 33.44080 | -111.87208 | 3024 ft | 144 kts | 269° |
| 2026-05-09 01:36 | 33.44079 | -111.88392 | 2832 ft | 141 kts | 269° |
| 2026-05-09 01:37 | 33.44079 | -111.89561 | 2635 ft | 138 kts | 269° |
| 2026-05-09 01:37 | 33.44079 | -111.90713 | 2467 ft | 139 kts | 270° |
| 2026-05-09 01:37 | 33.44079 | -111.91865 | 2305 ft | 141 kts | 271° |
| 2026-05-09 01:37 | 33.44080 | -111.93028 | 2144 ft | 136 kts | 270° |
| 2026-05-09 01:38 | 33.44078 | -111.94129 | 1976 ft | 132 kts | 271° |
| 2026-05-09 01:38 | 33.44080 | -111.95284 | 1836 ft | 142 kts | 272° |
| 2026-05-09 01:38 | 33.44085 | -111.96465 | 1678 ft | 142 kts | 273° |
| 2026-05-09 01:38 | 33.44097 | -111.97634 | 1461 ft | 139 kts | 268° |
| 2026-05-09 01:39 | 33.44082 | -111.98779 | 1255 ft | 136 kts | 269° |
| 2026-05-09 01:39 | 33.44084 | -111.99835 | 1135 ft | 116 kts | 269° |
| 2026-05-09 01:39 | 33.44083 | -112.00645 | 1128 ft | 76 kts | 270° |
| 2026-05-09 01:39 | 33.44085 | -112.00969 | 1132 ft | 9 kts | 263° |
| 2026-05-09 01:40 | 33.44067 | -112.01048 | 1133 ft | 10 kts | 239° |
| 2026-05-09 01:40 | 33.44003 | -112.01097 | 1123 ft | 14 kts | 207° |
| 2026-05-09 01:40 | 33.43912 | -112.01114 | 1120 ft | 13 kts | 130° |
| 2026-05-09 01:40 | 33.43900 | -112.01016 | 1124 ft | 12 kts | 92° |
| 2026-05-09 01:41 | 33.43867 | -112.00954 | 1124 ft | 9 kts | 146° |
| 2026-05-09 01:41 | 33.43821 | -112.00918 | 1116 ft | 2 kts | 146° |